sensor_id;sensor_type;location;lat;lon;timestamp;pressure;altitude;pressure_sealevel;temperature;humidity
62946;BME280;52164;52.212;-1.010;2022-09-27T00:00:40;99450.88;;;9.43;73.62
62946;BME280;52164;52.212;-1.010;2022-09-27T00:03:08;99438.14;;;9.38;73.71
62946;BME280;52164;52.212;-1.010;2022-09-27T00:05:33;99419.70;;;9.30;74.13
62946;BME280;52164;52.212;-1.010;2022-09-27T00:07:59;99421.02;;;9.25;73.88
62946;BME280;52164;52.212;-1.010;2022-09-27T00:10:25;99426.77;;;9.19;73.93
62946;BME280;52164;52.212;-1.010;2022-09-27T00:12:50;99432.36;;;9.14;73.84
62946;BME280;52164;52.212;-1.010;2022-09-27T00:15:16;99436.31;;;9.10;73.83
62946;BME280;52164;52.212;-1.010;2022-09-27T00:17:42;99437.08;;;9.05;73.98
62946;BME280;52164;52.212;-1.010;2022-09-27T00:20:08;99437.83;;;9.02;74.32
62946;BME280;52164;52.212;-1.010;2022-09-27T00:22:34;99439.13;;;8.97;74.04
62946;BME280;52164;52.212;-1.010;2022-09-27T00:25:00;99441.65;;;8.94;73.86
62946;BME280;52164;52.212;-1.010;2022-09-27T00:27:26;99442.40;;;8.91;74.26
62946;BME280;52164;52.212;-1.010;2022-09-27T00:29:52;99440.65;;;8.87;74.29
62946;BME280;52164;52.212;-1.010;2022-09-27T00:32:18;99446.91;;;8.84;73.99
62946;BME280;52164;52.212;-1.010;2022-09-27T00:34:44;99451.94;;;8.80;73.91
62946;BME280;52164;52.212;-1.010;2022-09-27T00:37:10;99453.76;;;8.75;74.06
62946;BME280;52164;52.212;-1.010;2022-09-27T00:39:36;99450.77;;;8.72;74.39
62946;BME280;52164;52.212;-1.010;2022-09-27T00:42:03;99452.95;;;8.68;74.29
62946;BME280;52164;52.212;-1.010;2022-09-27T00:49:33;99448.75;;;8.60;75.16
62946;BME280;52164;52.212;-1.010;2022-09-27T00:52:04;99449.29;;;8.57;75.00
62946;BME280;52164;52.212;-1.010;2022-09-27T00:54:33;99448.95;;;8.56;74.82
62946;BME280;52164;52.212;-1.010;2022-09-27T00:57:01;99448.26;;;8.55;75.11
62946;BME280;52164;52.212;-1.010;2022-09-27T00:59:38;99447.35;;;8.55;75.12
62946;BME280;52164;52.212;-1.010;2022-09-27T01:02:06;99445.56;;;8.57;75.13
62946;BME280;52164;52.212;-1.010;2022-09-27T01:04:32;99446.08;;;8.57;75.37
62946;BME280;52164;52.212;-1.010;2022-09-27T01:06:58;99449.84;;;8.56;75.29
62946;BME280;52164;52.212;-1.010;2022-09-27T01:09:24;99451.27;;;8.55;75.06
62946;BME280;52164;52.212;-1.010;2022-09-27T01:12:17;99453.05;;;8.54;74.81
62946;BME280;52164;52.212;-1.010;2022-09-27T01:17:58;99456.85;;;8.49;74.50
62946;BME280;52164;52.212;-1.010;2022-09-27T01:20:23;99453.48;;;8.46;74.61
62946;BME280;52164;52.212;-1.010;2022-09-27T01:23:19;99449.42;;;8.40;74.82
62946;BME280;52164;52.212;-1.010;2022-09-27T01:25:58;99438.25;;;8.36;74.74
62946;BME280;52164;52.212;-1.010;2022-09-27T01:31:54;99440.95;;;8.30;74.56
62946;BME280;52164;52.212;-1.010;2022-09-27T01:34:54;99439.05;;;8.24;74.76
62946;BME280;52164;52.212;-1.010;2022-09-27T01:42:38;99431.63;;;8.20;75.24
62946;BME280;52164;52.212;-1.010;2022-09-27T01:45:29;99427.36;;;8.19;75.39
62946;BME280;52164;52.212;-1.010;2022-09-27T01:48:00;99426.11;;;8.20;75.00
62946;BME280;52164;52.212;-1.010;2022-09-27T01:50:31;99422.02;;;8.22;75.49
62946;BME280;52164;52.212;-1.010;2022-09-27T01:53:04;99420.23;;;8.22;75.15
62946;BME280;52164;52.212;-1.010;2022-09-27T01:55:35;99418.98;;;8.22;75.25
62946;BME280;52164;52.212;-1.010;2022-09-27T01:58:13;99416.69;;;8.21;75.39
62946;BME280;52164;52.212;-1.010;2022-09-27T02:00:43;99420.60;;;8.21;75.06
62946;BME280;52164;52.212;-1.010;2022-09-27T02:03:15;99420.07;;;8.20;75.08
62946;BME280;52164;52.212;-1.010;2022-09-27T02:05:46;99415.29;;;8.17;74.98
62946;BME280;52164;52.212;-1.010;2022-09-27T02:08:24;99419.03;;;8.15;74.73
62946;BME280;52164;52.212;-1.010;2022-09-27T02:10:53;99419.41;;;8.14;74.98
62946;BME280;52164;52.212;-1.010;2022-09-27T02:13:24;99420.84;;;8.13;74.80
62946;BME280;52164;52.212;-1.010;2022-09-27T02:16:04;99422.44;;;8.13;75.27
62946;BME280;52164;52.212;-1.010;2022-09-27T02:18:39;99418.34;;;8.10;75.07
62946;BME280;52164;52.212;-1.010;2022-09-27T02:21:10;99411.77;;;8.11;75.09
62946;BME280;52164;52.212;-1.010;2022-09-27T02:23:42;99410.17;;;8.13;75.13
62946;BME280;52164;52.212;-1.010;2022-09-27T02:28:47;99400.91;;;8.15;74.97
62946;BME280;52164;52.212;-1.010;2022-09-27T02:31:14;99404.27;;;8.16;74.68
62946;BME280;52164;52.212;-1.010;2022-09-27T02:33:43;99403.39;;;8.16;74.64
62946;BME280;52164;52.212;-1.010;2022-09-27T02:36:12;99402.34;;;8.14;74.77
62946;BME280;52164;52.212;-1.010;2022-09-27T02:38:37;99399.34;;;8.12;74.69
62946;BME280;52164;52.212;-1.010;2022-09-27T02:41:10;99399.90;;;8.10;74.46
62946;BME280;52164;52.212;-1.010;2022-09-27T02:43:36;99400.45;;;8.07;74.55
62946;BME280;52164;52.212;-1.010;2022-09-27T02:46:17;99393.17;;;8.03;74.65
62946;BME280;52164;52.212;-1.010;2022-09-27T02:54:39;99388.07;;;7.99;74.51
62946;BME280;52164;52.212;-1.010;2022-09-27T03:02:19;99384.55;;;7.94;74.91
62946;BME280;52164;52.212;-1.010;2022-09-27T03:04:53;99381.17;;;7.93;74.75
62946;BME280;52164;52.212;-1.010;2022-09-27T03:07:21;99381.17;;;7.93;74.18
62946;BME280;52164;52.212;-1.010;2022-09-27T03:09:49;99378.52;;;7.92;74.39
62946;BME280;52164;52.212;-1.010;2022-09-27T03:12:17;99371.77;;;7.92;74.77
62946;BME280;52164;52.212;-1.010;2022-09-27T03:14:47;99366.42;;;7.93;74.38
62946;BME280;52164;52.212;-1.010;2022-09-27T03:17:13;99363.95;;;7.93;74.65
62946;BME280;52164;52.212;-1.010;2022-09-27T03:19:39;99372.28;;;7.94;74.61
62946;BME280;52164;52.212;-1.010;2022-09-27T03:22:05;99373.52;;;7.95;74.47
62946;BME280;52164;52.212;-1.010;2022-09-27T03:24:31;99379.02;;;7.97;74.25
62946;BME280;52164;52.212;-1.010;2022-09-27T03:26:56;99372.44;;;7.98;74.19
62946;BME280;52164;52.212;-1.010;2022-09-27T03:29:26;99367.45;;;7.99;74.53
62946;BME280;52164;52.212;-1.010;2022-09-27T03:31:52;99370.43;;;8.02;74.39
62946;BME280;52164;52.212;-1.010;2022-09-27T03:34:17;99365.27;;;8.05;74.20
62946;BME280;52164;52.212;-1.010;2022-09-27T03:36:43;99363.63;;;8.09;74.47
62946;BME280;52164;52.212;-1.010;2022-09-27T03:39:08;99365.04;;;8.12;74.38
62946;BME280;52164;52.212;-1.010;2022-09-27T03:41:34;99361.62;;;8.15;74.40
62946;BME280;52164;52.212;-1.010;2022-09-27T03:43:59;99361.27;;;8.15;74.71
62946;BME280;52164;52.212;-1.010;2022-09-27T03:46:25;99362.33;;;8.16;74.49
62946;BME280;52164;52.212;-1.010;2022-09-27T03:48:51;99361.61;;;8.19;74.52
62946;BME280;52164;52.212;-1.010;2022-09-27T03:51:16;99362.31;;;8.19;74.49
62946;BME280;52164;52.212;-1.010;2022-09-27T03:53:42;99360.88;;;8.20;74.15
62946;BME280;52164;52.212;-1.010;2022-09-27T03:56:08;99353.75;;;8.23;74.50
62946;BME280;52164;52.212;-1.010;2022-09-27T03:58:34;99353.56;;;8.24;74.56
62946;BME280;52164;52.212;-1.010;2022-09-27T04:00:59;99351.59;;;8.25;74.42
62946;BME280;52164;52.212;-1.010;2022-09-27T04:03:25;99352.84;;;8.24;74.46
62946;BME280;52164;52.212;-1.010;2022-09-27T04:05:52;99355.85;;;8.25;74.60
62946;BME280;52164;52.212;-1.010;2022-09-27T04:08:19;99352.11;;;8.26;74.57
62946;BME280;52164;52.212;-1.010;2022-09-27T04:10:46;99357.61;;;8.28;74.87
62946;BME280;52164;52.212;-1.010;2022-09-27T04:13:11;99357.20;;;8.32;74.73
62946;BME280;52164;52.212;-1.010;2022-09-27T04:15:37;99360.56;;;8.36;75.15
62946;BME280;52164;52.212;-1.010;2022-09-27T04:18:05;99360.17;;;8.39;74.75
62946;BME280;52164;52.212;-1.010;2022-09-27T04:20:31;99358.55;;;8.40;74.71
62946;BME280;52164;52.212;-1.010;2022-09-27T04:22:57;99353.59;;;8.40;74.90
62946;BME280;52164;52.212;-1.010;2022-09-27T04:25:22;99355.89;;;8.40;74.53
62946;BME280;52164;52.212;-1.010;2022-09-27T04:27:48;99358.55;;;8.42;74.76
62946;BME280;52164;52.212;-1.010;2022-09-27T04:30:19;99348.23;;;8.41;74.58
62946;BME280;52164;52.212;-1.010;2022-09-27T04:32:44;99344.51;;;8.41;74.60
62946;BME280;52164;52.212;-1.010;2022-09-27T04:35:11;99334.36;;;8.40;74.68
62946;BME280;52164;52.212;-1.010;2022-09-27T04:37:58;99326.73;;;8.40;74.82
62946;BME280;52164;52.212;-1.010;2022-09-27T04:40:24;99326.01;;;8.41;74.53
62946;BME280;52164;52.212;-1.010;2022-09-27T04:42:50;99326.36;;;8.42;74.87
62946;BME280;52164;52.212;-1.010;2022-09-27T04:45:17;99323.33;;;8.43;74.67
62946;BME280;52164;52.212;-1.010;2022-09-27T04:47:45;99318.71;;;8.45;74.83
62946;BME280;52164;52.212;-1.010;2022-09-27T04:50:11;99315.50;;;8.48;74.63
62946;BME280;52164;52.212;-1.010;2022-09-27T04:52:37;99316.00;;;8.50;74.89
62946;BME280;52164;52.212;-1.010;2022-09-27T04:55:03;99319.52;;;8.53;74.57
62946;BME280;52164;52.212;-1.010;2022-09-27T04:57:29;99314.70;;;8.54;74.53
62946;BME280;52164;52.212;-1.010;2022-09-27T04:59:55;99314.17;;;8.54;74.57
62946;BME280;52164;52.212;-1.010;2022-09-27T05:02:23;99312.24;;;8.53;74.43
62946;BME280;52164;52.212;-1.010;2022-09-27T05:04:48;99316.69;;;8.52;74.52
62946;BME280;52164;52.212;-1.010;2022-09-27T05:07:13;99314.20;;;8.53;74.41
62946;BME280;52164;52.212;-1.010;2022-09-27T05:09:39;99315.77;;;8.54;74.32
62946;BME280;52164;52.212;-1.010;2022-09-27T05:12:04;99311.14;;;8.55;74.31
62946;BME280;52164;52.212;-1.010;2022-09-27T05:14:33;99318.08;;;8.56;74.32
62946;BME280;52164;52.212;-1.010;2022-09-27T05:16:58;99317.69;;;8.57;74.53
62946;BME280;52164;52.212;-1.010;2022-09-27T05:19:23;99322.49;;;8.58;74.36
62946;BME280;52164;52.212;-1.010;2022-09-27T05:21:49;99317.68;;;8.58;74.28
62946;BME280;52164;52.212;-1.010;2022-09-27T05:24:15;99312.34;;;8.59;74.50
62946;BME280;52164;52.212;-1.010;2022-09-27T05:26:40;99312.71;;;8.57;74.44
62946;BME280;52164;52.212;-1.010;2022-09-27T05:29:06;99313.61;;;8.56;74.25
62946;BME280;52164;52.212;-1.010;2022-09-27T05:31:33;99313.63;;;8.55;74.25
62946;BME280;52164;52.212;-1.010;2022-09-27T05:33:58;99312.58;;;8.54;74.76
62946;BME280;52164;52.212;-1.010;2022-09-27T05:36:24;99315.43;;;8.53;74.41
62946;BME280;52164;52.212;-1.010;2022-09-27T05:38:49;99312.60;;;8.53;74.43
62946;BME280;52164;52.212;-1.010;2022-09-27T05:41:15;99314.19;;;8.53;74.43
62946;BME280;52164;52.212;-1.010;2022-09-27T05:43:41;99313.84;;;8.52;74.57
62946;BME280;52164;52.212;-1.010;2022-09-27T05:46:06;99315.98;;;8.51;74.27
62946;BME280;52164;52.212;-1.010;2022-09-27T05:48:32;99319.89;;;8.53;74.46
62946;BME280;52164;52.212;-1.010;2022-09-27T05:50:57;99322.17;;;8.55;74.54
62946;BME280;52164;52.212;-1.010;2022-09-27T05:53:24;99329.80;;;8.55;74.44
62946;BME280;52164;52.212;-1.010;2022-09-27T05:55:49;99325.90;;;8.55;74.44
62946;BME280;52164;52.212;-1.010;2022-09-27T05:58:15;99322.17;;;8.55;74.27
62946;BME280;52164;52.212;-1.010;2022-09-27T06:00:42;99325.00;;;8.56;74.53
62946;BME280;52164;52.212;-1.010;2022-09-27T06:03:10;99326.08;;;8.54;74.54
62946;BME280;52164;52.212;-1.010;2022-09-27T06:05:38;99320.58;;;8.54;74.59
62946;BME280;52164;52.212;-1.010;2022-09-27T06:08:06;99320.56;;;8.55;74.82
62946;BME280;52164;52.212;-1.010;2022-09-27T06:10:32;99318.95;;;8.56;74.40
62946;BME280;52164;52.212;-1.010;2022-09-27T06:12:59;99312.35;;;8.58;75.30
62946;BME280;52164;52.212;-1.010;2022-09-27T06:15:26;99309.84;;;8.61;75.26
62946;BME280;52164;52.212;-1.010;2022-09-27T06:17:52;99307.67;;;8.63;75.63
62946;BME280;52164;52.212;-1.010;2022-09-27T06:20:17;99304.27;;;8.66;75.50
62946;BME280;52164;52.212;-1.010;2022-09-27T06:22:42;99300.16;;;8.67;75.50
62946;BME280;52164;52.212;-1.010;2022-09-27T06:25:10;99305.13;;;8.68;75.48
62946;BME280;52164;52.212;-1.010;2022-09-27T06:27:36;99302.28;;;8.68;75.69
62946;BME280;52164;52.212;-1.010;2022-09-27T06:30:03;99299.97;;;8.68;75.84
62946;BME280;52164;52.212;-1.010;2022-09-27T06:32:30;99299.60;;;8.70;75.98
62946;BME280;52164;52.212;-1.010;2022-09-27T06:34:55;99296.91;;;8.71;75.96
62946;BME280;52164;52.212;-1.010;2022-09-27T06:37:24;99294.58;;;8.73;76.33
62946;BME280;52164;52.212;-1.010;2022-09-27T06:39:51;99291.71;;;8.75;75.73
62946;BME280;52164;52.212;-1.010;2022-09-27T06:42:17;99287.95;;;8.77;75.80
62946;BME280;52164;52.212;-1.010;2022-09-27T06:44:43;99285.42;;;8.79;75.96
62946;BME280;52164;52.212;-1.010;2022-09-27T06:47:11;99285.59;;;8.80;76.21
62946;BME280;52164;52.212;-1.010;2022-09-27T06:49:37;99278.29;;;8.81;75.93
62946;BME280;52164;52.212;-1.010;2022-09-27T06:52:04;99276.83;;;8.84;75.96
62946;BME280;52164;52.212;-1.010;2022-09-27T06:54:30;99276.78;;;8.88;75.71
62946;BME280;52164;52.212;-1.010;2022-09-27T06:56:56;99278.54;;;8.90;75.70
62946;BME280;52164;52.212;-1.010;2022-09-27T06:59:21;99271.95;;;8.90;75.60
62946;BME280;52164;52.212;-1.010;2022-09-27T07:02:06;99264.48;;;8.90;75.98
62946;BME280;52164;52.212;-1.010;2022-09-27T07:04:32;99265.33;;;8.93;75.71
62946;BME280;52164;52.212;-1.010;2022-09-27T07:06:58;99262.09;;;8.96;76.42
62946;BME280;52164;52.212;-1.010;2022-09-27T07:09:23;99265.23;;;8.99;76.16
62946;BME280;52164;52.212;-1.010;2022-09-27T07:11:49;99265.39;;;9.01;76.33
62946;BME280;52164;52.212;-1.010;2022-09-27T07:14:14;99259.51;;;9.03;76.25
62946;BME280;52164;52.212;-1.010;2022-09-27T07:16:44;99246.83;;;9.05;76.60
62946;BME280;52164;52.212;-1.010;2022-09-27T07:19:13;99243.38;;;9.10;76.38
62946;BME280;52164;52.212;-1.010;2022-09-27T07:21:39;99242.25;;;9.14;76.73
62946;BME280;52164;52.212;-1.010;2022-09-27T07:24:05;99238.97;;;9.20;76.55
62946;BME280;52164;52.212;-1.010;2022-09-27T07:26:30;99239.56;;;9.27;76.57
62946;BME280;52164;52.212;-1.010;2022-09-27T07:28:56;99238.36;;;9.36;76.67
62946;BME280;52164;52.212;-1.010;2022-09-27T07:31:22;99232.20;;;9.43;76.52
62946;BME280;52164;52.212;-1.010;2022-09-27T07:33:49;99230.52;;;9.47;76.39
62946;BME280;52164;52.212;-1.010;2022-09-27T07:36:14;99233.21;;;9.47;76.34
62946;BME280;52164;52.212;-1.010;2022-09-27T07:38:40;99230.53;;;9.47;76.60
62946;BME280;52164;52.212;-1.010;2022-09-27T07:41:07;99225.89;;;9.48;76.46
62946;BME280;52164;52.212;-1.010;2022-09-27T07:43:33;99224.45;;;9.48;76.52
62946;BME280;52164;52.212;-1.010;2022-09-27T07:45:58;99224.28;;;9.48;76.58
62946;BME280;52164;52.212;-1.010;2022-09-27T07:48:24;99219.60;;;9.51;76.75
62946;BME280;52164;52.212;-1.010;2022-09-27T07:50:51;99219.50;;;9.57;76.77
62946;BME280;52164;52.212;-1.010;2022-09-27T07:53:16;99216.02;;;9.63;76.49
62946;BME280;52164;52.212;-1.010;2022-09-27T07:55:42;99212.58;;;9.67;76.37
62946;BME280;52164;52.212;-1.010;2022-09-27T07:58:09;99213.86;;;9.74;76.60
62946;BME280;52164;52.212;-1.010;2022-09-27T08:00:35;99212.88;;;9.81;76.53
62946;BME280;52164;52.212;-1.010;2022-09-27T08:03:07;99210.42;;;9.87;76.48
62946;BME280;52164;52.212;-1.010;2022-09-27T08:05:35;99207.09;;;9.94;76.55
62946;BME280;52164;52.212;-1.010;2022-09-27T08:08:01;99202.58;;;9.97;76.14
62946;BME280;52164;52.212;-1.010;2022-09-27T08:10:28;99201.45;;;10.01;76.04
62946;BME280;52164;52.212;-1.010;2022-09-27T08:12:57;99200.88;;;10.03;75.88
62946;BME280;52164;52.212;-1.010;2022-09-27T08:15:24;99201.89;;;10.06;75.75
62946;BME280;52164;52.212;-1.010;2022-09-27T08:17:49;99198.56;;;10.12;75.60
62946;BME280;52164;52.212;-1.010;2022-09-27T08:20:15;99196.68;;;10.17;75.53
62946;BME280;52164;52.212;-1.010;2022-09-27T08:22:42;99198.86;;;10.24;75.22
62946;BME280;52164;52.212;-1.010;2022-09-27T08:25:08;99200.17;;;10.31;75.28
62946;BME280;52164;52.212;-1.010;2022-09-27T08:27:34;99201.86;;;10.36;75.08
62946;BME280;52164;52.212;-1.010;2022-09-27T08:29:59;99199.78;;;10.43;75.05
62946;BME280;52164;52.212;-1.010;2022-09-27T08:32:25;99206.03;;;10.51;74.69
62946;BME280;52164;52.212;-1.010;2022-09-27T08:34:52;99213.20;;;10.58;74.47
62946;BME280;52164;52.212;-1.010;2022-09-27T08:37:18;99204.15;;;10.65;74.28
62946;BME280;52164;52.212;-1.010;2022-09-27T08:39:43;99210.02;;;10.82;74.30
62946;BME280;52164;52.212;-1.010;2022-09-27T08:42:27;99208.41;;;10.99;74.23
62946;BME280;52164;52.212;-1.010;2022-09-27T08:45:00;99213.65;;;11.03;74.05
62946;BME280;52164;52.212;-1.010;2022-09-27T08:47:33;99218.40;;;11.07;73.17
62946;BME280;52164;52.212;-1.010;2022-09-27T08:50:23;99221.58;;;11.08;73.37
62946;BME280;52164;52.212;-1.010;2022-09-27T08:52:59;99222.11;;;11.16;73.06
62946;BME280;52164;52.212;-1.010;2022-09-27T08:55:38;99219.73;;;11.19;72.61
62946;BME280;52164;52.212;-1.010;2022-09-27T09:00:51;99213.77;;;11.22;72.48
62946;BME280;52164;52.212;-1.010;2022-09-27T09:03:22;99217.73;;;11.21;71.95
62946;BME280;52164;52.212;-1.010;2022-09-27T09:06:01;99228.21;;;11.23;72.26
62946;BME280;52164;52.212;-1.010;2022-09-27T09:08:41;99221.42;;;11.15;71.91
62946;BME280;52164;52.212;-1.010;2022-09-27T09:14:33;99225.41;;;10.97;71.87
62946;BME280;52164;52.212;-1.010;2022-09-27T09:19:43;99217.83;;;10.92;71.99
62946;BME280;52164;52.212;-1.010;2022-09-27T09:22:16;99217.25;;;11.02;72.26
62946;BME280;52164;52.212;-1.010;2022-09-27T09:30:43;99216.31;;;11.35;71.61
62946;BME280;52164;52.212;-1.010;2022-09-27T09:33:22;99216.02;;;11.32;71.54
62946;BME280;52164;52.212;-1.010;2022-09-27T09:36:02;99216.05;;;11.39;71.47
62946;BME280;52164;52.212;-1.010;2022-09-27T09:41:06;99213.58;;;11.52;71.18
62946;BME280;52164;52.212;-1.010;2022-09-27T09:43:46;99207.28;;;11.54;70.82
62946;BME280;52164;52.212;-1.010;2022-09-27T09:46:35;99203.82;;;11.63;71.25
62946;BME280;52164;52.212;-1.010;2022-09-27T09:51:38;99198.32;;;11.89;70.58
62946;BME280;52164;52.212;-1.010;2022-09-27T09:54:11;99191.68;;;11.99;70.47
62946;BME280;52164;52.212;-1.010;2022-09-27T09:56:44;99198.02;;;12.09;70.42
62946;BME280;52164;52.212;-1.010;2022-09-27T09:59:19;99188.25;;;12.13;69.88
62946;BME280;52164;52.212;-1.010;2022-09-27T10:01:49;99189.76;;;12.24;69.75
62946;BME280;52164;52.212;-1.010;2022-09-27T10:04:22;99186.98;;;12.26;69.33
62946;BME280;52164;52.212;-1.010;2022-09-27T10:06:49;99187.46;;;12.29;68.58
62946;BME280;52164;52.212;-1.010;2022-09-27T10:09:23;99185.83;;;12.23;68.56
62946;BME280;52164;52.212;-1.010;2022-09-27T10:11:50;99183.55;;;12.28;68.78
62946;BME280;52164;52.212;-1.010;2022-09-27T10:14:18;99182.35;;;12.32;68.56
62946;BME280;52164;52.212;-1.010;2022-09-27T10:16:47;99175.58;;;12.31;68.54
62946;BME280;52164;52.212;-1.010;2022-09-27T10:19:16;99166.58;;;12.40;68.32
62946;BME280;52164;52.212;-1.010;2022-09-27T10:21:45;99165.99;;;12.60;67.93
62946;BME280;52164;52.212;-1.010;2022-09-27T10:24:14;99156.38;;;12.70;67.44
62946;BME280;52164;52.212;-1.010;2022-09-27T10:26:43;99157.95;;;12.71;66.95
62946;BME280;52164;52.212;-1.010;2022-09-27T10:29:30;99155.23;;;12.78;67.07
62946;BME280;52164;52.212;-1.010;2022-09-27T10:31:57;99145.30;;;12.98;67.06
62946;BME280;52164;52.212;-1.010;2022-09-27T10:34:30;99145.05;;;13.17;67.20
62946;BME280;52164;52.212;-1.010;2022-09-27T10:37:18;99151.83;;;13.23;67.03
62946;BME280;52164;52.212;-1.010;2022-09-27T10:39:46;99147.50;;;13.08;66.47
62946;BME280;52164;52.212;-1.010;2022-09-27T10:42:33;99153.47;;;12.89;66.65
62946;BME280;52164;52.212;-1.010;2022-09-27T10:47:44;99151.54;;;12.46;67.36
62946;BME280;52164;52.212;-1.010;2022-09-27T10:50:17;99158.12;;;12.23;67.68
62946;BME280;52164;52.212;-1.010;2022-09-27T10:52:47;99182.57;;;11.91;68.96
62946;BME280;52164;52.212;-1.010;2022-09-27T10:55:21;99180.15;;;11.60;69.14
62946;BME280;52164;52.212;-1.010;2022-09-27T10:57:49;99173.89;;;11.24;69.93
62946;BME280;52164;52.212;-1.010;2022-09-27T11:00:22;99172.89;;;10.98;70.64
62946;BME280;52164;52.212;-1.010;2022-09-27T11:02:55;99170.54;;;10.76;71.27
62946;BME280;52164;52.212;-1.010;2022-09-27T11:07:52;99170.15;;;10.52;72.74
62946;BME280;52164;52.212;-1.010;2022-09-27T11:13:13;99157.54;;;10.59;73.43
62946;BME280;52164;52.212;-1.010;2022-09-27T11:16:58;99151.84;;;10.65;73.25
62946;BME280;52164;52.212;-1.010;2022-09-27T11:18:35;99148.46;;;10.73;73.32
62946;BME280;52164;52.212;-1.010;2022-09-27T11:21:10;99144.10;;;10.85;73.97
62946;BME280;52164;52.212;-1.010;2022-09-27T11:29:09;99147.83;;;11.30;73.52
62946;BME280;52164;52.212;-1.010;2022-09-27T11:32:38;99147.16;;;11.63;72.62
62946;BME280;52164;52.212;-1.010;2022-09-27T11:36:39;99148.03;;;11.65;72.81
62946;BME280;52164;52.212;-1.010;2022-09-27T11:38:18;99142.94;;;11.68;72.94
62946;BME280;52164;52.212;-1.010;2022-09-27T11:46:29;99142.67;;;11.52;71.37
62946;BME280;52164;52.212;-1.010;2022-09-27T11:57:48;99132.95;;;11.47;71.04
62946;BME280;52164;52.212;-1.010;2022-09-27T12:03:14;99129.31;;;11.49;71.05
62946;BME280;52164;52.212;-1.010;2022-09-27T12:06:15;99130.99;;;11.40;71.27
62946;BME280;52164;52.212;-1.010;2022-09-27T12:08:47;99124.65;;;11.36;71.77
62946;BME280;52164;52.212;-1.010;2022-09-27T12:11:26;99117.07;;;11.39;71.72
62946;BME280;52164;52.212;-1.010;2022-09-27T12:14:00;99110.06;;;11.48;71.76
62946;BME280;52164;52.212;-1.010;2022-09-27T12:16:27;99107.47;;;11.58;71.64
62946;BME280;52164;52.212;-1.010;2022-09-27T12:18:54;99108.78;;;11.69;71.17
62946;BME280;52164;52.212;-1.010;2022-09-27T12:21:21;99106.17;;;11.80;71.32
62946;BME280;52164;52.212;-1.010;2022-09-27T12:23:51;99107.16;;;11.96;70.97
62946;BME280;52164;52.212;-1.010;2022-09-27T12:26:26;99100.26;;;12.26;70.83
62946;BME280;52164;52.212;-1.010;2022-09-27T12:28:58;99093.98;;;12.56;70.11
62946;BME280;52164;52.212;-1.010;2022-09-27T12:33:57;99099.42;;;12.99;67.86
62946;BME280;52164;52.212;-1.010;2022-09-27T12:36:31;99096.10;;;13.02;67.01
62946;BME280;52164;52.212;-1.010;2022-09-27T12:39:05;99095.19;;;13.03;67.21
62946;BME280;52164;52.212;-1.010;2022-09-27T12:41:41;99087.64;;;13.09;67.30
62946;BME280;52164;52.212;-1.010;2022-09-27T12:44:10;99089.38;;;13.11;67.11
62946;BME280;52164;52.212;-1.010;2022-09-27T12:47:09;99090.19;;;13.08;66.80
62946;BME280;52164;52.212;-1.010;2022-09-27T12:52:04;99084.66;;;12.91;66.07
62946;BME280;52164;52.212;-1.010;2022-09-27T12:57:44;99077.80;;;13.31;64.80
62946;BME280;52164;52.212;-1.010;2022-09-27T13:05:56;99072.94;;;13.58;63.78
62946;BME280;52164;52.212;-1.010;2022-09-27T13:08:47;99069.21;;;13.57;63.36
62946;BME280;52164;52.212;-1.010;2022-09-27T13:11:41;99064.71;;;13.36;63.59
62946;BME280;52164;52.212;-1.010;2022-09-27T13:14:18;99061.52;;;13.29;63.66
62946;BME280;52164;52.212;-1.010;2022-09-27T13:16:45;99058.08;;;13.31;63.78
62946;BME280;52164;52.212;-1.010;2022-09-27T13:21:58;99053.23;;;13.20;64.23
62946;BME280;52164;52.212;-1.010;2022-09-27T13:24:41;99049.34;;;13.14;63.92
62946;BME280;52164;52.212;-1.010;2022-09-27T13:36:37;99039.18;;;13.33;63.10
62946;BME280;52164;52.212;-1.010;2022-09-27T13:39:15;99037.21;;;13.49;62.68
62946;BME280;52164;52.212;-1.010;2022-09-27T13:44:33;99024.19;;;13.73;62.23
62946;BME280;52164;52.212;-1.010;2022-09-27T13:47:30;99016.06;;;13.83;62.04
62946;BME280;52164;52.212;-1.010;2022-09-27T13:50:24;99022.85;;;13.79;62.16
62946;BME280;52164;52.212;-1.010;2022-09-27T13:52:59;99031.86;;;13.63;61.95
62946;BME280;52164;52.212;-1.010;2022-09-27T13:55:40;99038.92;;;13.41;62.29
62946;BME280;52164;52.212;-1.010;2022-09-27T13:58:31;99046.66;;;13.13;62.85
62946;BME280;52164;52.212;-1.010;2022-09-27T14:01:00;99054.20;;;12.91;63.02
62946;BME280;52164;52.212;-1.010;2022-09-27T14:03:31;99053.40;;;12.71;62.70
62946;BME280;52164;52.212;-1.010;2022-09-27T14:06:03;99064.61;;;12.51;62.87
62946;BME280;52164;52.212;-1.010;2022-09-27T14:08:43;99067.69;;;12.26;63.29
62946;BME280;52164;52.212;-1.010;2022-09-27T14:11:13;99076.50;;;12.19;64.03
62946;BME280;52164;52.212;-1.010;2022-09-27T14:13:43;99072.50;;;12.14;64.68
62946;BME280;52164;52.212;-1.010;2022-09-27T14:16:15;99070.50;;;12.22;64.89
62946;BME280;52164;52.212;-1.010;2022-09-27T14:18:45;99068.52;;;12.22;64.50
62946;BME280;52164;52.212;-1.010;2022-09-27T14:21:32;99059.52;;;12.12;64.68
62946;BME280;52164;52.212;-1.010;2022-09-27T14:24:23;99068.52;;;12.22;64.78
62946;BME280;52164;52.212;-1.010;2022-09-27T14:27:10;99059.69;;;12.48;64.02
62946;BME280;52164;52.212;-1.010;2022-09-27T14:29:44;99053.49;;;12.63;64.12
62946;BME280;52164;52.212;-1.010;2022-09-27T14:32:13;99055.48;;;12.74;63.27
62946;BME280;52164;52.212;-1.010;2022-09-27T14:34:40;99053.49;;;12.80;63.20
62946;BME280;52164;52.212;-1.010;2022-09-27T14:37:18;99057.10;;;12.84;62.91
62946;BME280;52164;52.212;-1.010;2022-09-27T14:40:00;99056.53;;;13.02;62.77
62946;BME280;52164;52.212;-1.010;2022-09-27T14:42:32;99049.02;;;13.23;62.08
62946;BME280;52164;52.212;-1.010;2022-09-27T14:45:38;99045.41;;;13.29;62.01
62946;BME280;52164;52.212;-1.010;2022-09-27T14:47:53;99048.93;;;13.36;61.72
62946;BME280;52164;52.212;-1.010;2022-09-27T14:50:37;99050.52;;;13.43;61.38
62946;BME280;52164;52.212;-1.010;2022-09-27T14:53:21;99049.20;;;13.39;61.04
62946;BME280;52164;52.212;-1.010;2022-09-27T14:55:47;99050.27;;;13.28;60.86
62946;BME280;52164;52.212;-1.010;2022-09-27T14:58:13;99046.58;;;13.15;61.20
62946;BME280;52164;52.212;-1.010;2022-09-27T15:00:45;99053.42;;;13.09;61.20
62946;BME280;52164;52.212;-1.010;2022-09-27T15:03:31;99049.74;;;12.96;61.04